createdAt,value
2022-11-23T00:01:34.102Z,4.10
2022-11-23T00:04:07.059Z,4.10
2022-11-23T00:06:34.506Z,4.10
2022-11-23T00:09:01.430Z,4.10
2022-11-23T00:11:28.993Z,4.10
2022-11-23T00:13:56.292Z,4.10
2022-11-23T00:16:26.211Z,4.10
2022-11-23T00:18:56.722Z,4.10
2022-11-23T00:21:24.889Z,4.10
2022-11-23T00:23:51.737Z,4.10
2022-11-23T00:26:19.422Z,4.10
2022-11-23T00:28:46.436Z,4.10
2022-11-23T00:31:15.485Z,4.10
2022-11-23T00:33:43.227Z,4.10
2022-11-23T00:36:13.976Z,4.10
2022-11-23T00:38:42.599Z,4.10
2022-11-23T00:41:12.362Z,4.10
2022-11-23T00:43:39.069Z,4.10
2022-11-23T00:46:12.914Z,4.10
2022-11-23T00:48:39.678Z,4.10
2022-11-23T00:51:09.713Z,4.10
2022-11-23T00:53:37.986Z,4.10
2022-11-23T00:56:05.277Z,4.10
2022-11-23T00:58:34.811Z,4.10
2022-11-23T01:01:10.344Z,4.10
2022-11-23T01:03:42.939Z,4.10
2022-11-23T01:06:14.425Z,4.10
2022-11-23T01:08:41.539Z,4.10
2022-11-23T01:11:11.764Z,4.10
2022-11-23T01:13:41.511Z,4.10
2022-11-23T01:16:22.413Z,4.10
2022-11-23T01:19:13.793Z,4.10
2022-11-23T01:21:40.871Z,4.10
2022-11-23T01:24:12.114Z,4.00
2022-11-23T01:26:39.671Z,4.00
2022-11-23T01:29:06.938Z,4.00
2022-11-23T01:31:33.835Z,4.00
2022-11-23T01:34:02.123Z,4.00
2022-11-23T01:36:30.965Z,4.00
2022-11-23T01:38:59.800Z,4.00
2022-11-23T01:41:31.835Z,4.00
2022-11-23T01:43:58.740Z,4.00
2022-11-23T01:46:25.952Z,4.00
2022-11-23T01:49:03.770Z,4.00
2022-11-23T01:51:34.922Z,4.00
2022-11-23T01:54:07.887Z,4.00
2022-11-23T01:56:39.461Z,4.00
2022-11-23T01:59:12.284Z,4.00
2022-11-23T02:04:25.671Z,4.00
2022-11-23T02:06:53.404Z,4.00
2022-11-23T02:09:27.031Z,4.10
2022-11-23T02:12:00.236Z,4.10
2022-11-23T02:14:30.211Z,4.10
2022-11-23T02:17:00.414Z,4.10
2022-11-23T02:19:48.204Z,4.10
2022-11-23T02:22:23.184Z,4.10
2022-11-23T02:24:56.307Z,4.10
2022-11-23T02:27:23.608Z,4.10
2022-11-23T02:29:52.825Z,4.10
2022-11-23T02:32:23.575Z,4.10
2022-11-23T02:34:55.298Z,4.10
2022-11-23T02:37:22.652Z,4.10
2022-11-23T02:39:55.180Z,4.10
2022-11-23T02:42:29.481Z,4.10
2022-11-23T02:45:25.056Z,4.20
2022-11-23T02:47:54.561Z,4.20
2022-11-23T02:50:23.883Z,4.20
2022-11-23T02:52:54.836Z,4.20
2022-11-23T02:55:22.405Z,4.20
2022-11-23T02:57:49.937Z,4.20
2022-11-23T03:46:10.379Z,4.20
2022-11-23T03:48:38.705Z,4.20
2022-11-23T03:51:05.532Z,4.20
2022-11-23T03:53:32.688Z,4.20
2022-11-23T03:55:59.382Z,4.30
2022-11-23T03:58:26.185Z,4.20
2022-11-23T04:00:52.906Z,4.20
2022-11-23T04:03:19.810Z,4.30
2022-11-23T04:05:46.629Z,4.30
2022-11-23T04:08:16.026Z,4.30
2022-11-23T04:10:42.795Z,4.30
2022-11-23T04:13:09.549Z,4.30
2022-11-23T04:15:36.466Z,4.30
2022-11-23T04:18:04.721Z,4.30
2022-11-23T04:20:31.403Z,4.30
2022-11-23T04:22:58.038Z,4.30
2022-11-23T04:25:24.759Z,4.30
2022-11-23T04:27:51.545Z,4.30
2022-11-23T04:30:18.396Z,4.30
2022-11-23T04:32:45.804Z,4.30
2022-11-23T04:35:12.881Z,4.30
2022-11-23T04:37:40.738Z,4.30
2022-11-23T04:40:08.272Z,4.20
2022-11-23T04:42:35.177Z,4.20
2022-11-23T04:45:02.017Z,4.20
2022-11-23T04:47:28.666Z,4.20
2022-11-23T04:49:55.387Z,4.10
2022-11-23T04:52:22.258Z,4.10
2022-11-23T04:54:48.949Z,4.10
2022-11-23T04:57:15.712Z,4.10
2022-11-23T04:59:42.497Z,4.00
2022-11-23T05:02:10.221Z,4.00
2022-11-23T05:04:36.908Z,4.00
2022-11-23T05:07:04.909Z,4.00
2022-11-23T05:09:32.736Z,4.00
2022-11-23T05:11:59.773Z,4.00
2022-11-23T05:14:26.453Z,4.00
2022-11-23T05:19:35.527Z,4.00
2022-11-23T05:22:04.592Z,4.00
2022-11-23T05:24:33.639Z,4.00
2022-11-23T05:27:00.673Z,4.00
2022-11-23T05:29:27.575Z,4.00
2022-11-23T05:31:55.360Z,4.00
2022-11-23T05:34:26.468Z,4.00
2022-11-23T05:39:36.702Z,4.00
2022-11-23T05:42:03.523Z,4.10
2022-11-23T05:47:12.611Z,4.00
2022-11-23T05:49:39.351Z,4.00
2022-11-23T05:52:06.255Z,4.00
2022-11-23T05:54:33.090Z,4.10
2022-11-23T05:56:59.992Z,4.10
2022-11-23T05:59:26.730Z,4.00
2022-11-23T06:01:53.751Z,4.10
2022-11-23T06:04:20.577Z,4.10
2022-11-23T06:06:47.367Z,4.10
2022-11-23T06:09:14.046Z,4.10
2022-11-23T06:11:40.854Z,4.10
2022-11-23T06:14:11.393Z,4.10
2022-11-23T06:16:41.017Z,4.00
2022-11-23T06:19:07.794Z,4.00
2022-11-23T06:21:34.567Z,4.00
2022-11-23T06:24:01.299Z,4.00
2022-11-23T06:26:28.097Z,3.90
2022-11-23T06:28:57.768Z,3.80
2022-11-23T06:31:24.506Z,3.80
2022-11-23T06:33:52.883Z,3.80
2022-11-23T06:36:20.089Z,3.80
2022-11-23T06:38:47.125Z,3.70
2022-11-23T06:41:13.975Z,3.70
2022-11-23T06:43:42.124Z,3.70
2022-11-23T06:46:10.226Z,3.70
2022-11-23T06:48:36.957Z,3.70
2022-11-23T06:51:03.821Z,3.70
2022-11-23T06:53:31.065Z,3.70
2022-11-23T06:56:01.043Z,3.70
2022-11-23T06:58:28.928Z,3.70
2022-11-23T07:01:00.862Z,3.70
2022-11-23T07:03:29.964Z,3.70
2022-11-23T07:05:56.958Z,3.70
2022-11-23T07:08:23.936Z,3.70
2022-11-23T07:10:50.801Z,3.70
2022-11-23T07:13:17.482Z,3.60
2022-11-23T07:15:44.213Z,3.60
2022-11-23T07:18:12.464Z,3.60
2022-11-23T07:20:39.505Z,3.50
2022-11-23T07:23:08.878Z,3.50
2022-11-23T07:25:37.512Z,3.40
2022-11-23T07:28:06.876Z,3.40
2022-11-23T07:30:34.966Z,3.40
2022-11-23T07:33:03.986Z,3.30
2022-11-23T07:35:32.694Z,3.40
2022-11-23T07:38:00.253Z,3.40
2022-11-23T07:40:27.217Z,3.50
2022-11-23T07:42:58.972Z,3.60
2022-11-23T07:45:25.742Z,3.70
2022-11-23T07:48:06.414Z,3.80
2022-11-23T07:50:34.750Z,3.90
2022-11-23T07:53:06.289Z,4.10
2022-11-23T07:55:33.842Z,4.20
2022-11-23T07:58:00.712Z,4.30
2022-11-23T08:03:26.543Z,4.60
2022-11-23T08:05:52.562Z,4.80
2022-11-23T08:08:20.253Z,4.90
2022-11-23T08:11:09.168Z,5.00
2022-11-23T08:13:37.383Z,5.10
2022-11-23T08:16:07.999Z,5.20
2022-11-23T08:18:35.983Z,5.30
2022-11-23T08:21:05.429Z,5.30
2022-11-23T08:23:41.725Z,5.30
2022-11-23T08:28:43.876Z,5.40
2022-11-23T08:31:11.429Z,5.40
2022-11-23T08:33:39.534Z,5.40
2022-11-23T08:36:09.041Z,5.40
2022-11-23T08:38:36.412Z,5.40
2022-11-23T08:41:05.571Z,5.40
2022-11-23T08:43:32.700Z,5.40
2022-11-23T08:46:06.895Z,5.30
2022-11-23T08:48:43.518Z,5.30
2022-11-23T08:51:10.391Z,5.30
2022-11-23T08:53:45.865Z,5.30
2022-11-23T09:01:34.086Z,5.50
2022-11-23T09:04:17.789Z,5.50
2022-11-23T09:06:51.384Z,5.50
2022-11-23T09:09:20.539Z,5.60
2022-11-23T09:11:49.712Z,5.70
2022-11-23T09:14:17.220Z,5.70
2022-11-23T09:16:44.963Z,5.80
2022-11-23T09:19:14.212Z,5.90
2022-11-23T09:21:43.881Z,6.00
2022-11-23T09:24:12.332Z,6.00
2022-11-23T09:26:42.286Z,6.10
2022-11-23T09:29:10.366Z,6.20
2022-11-23T09:31:38.519Z,6.30
2022-11-23T09:34:05.628Z,6.30
2022-11-23T09:36:32.704Z,6.40
2022-11-23T09:38:59.579Z,6.50
2022-11-23T09:41:51.850Z,6.60
2022-11-23T09:44:43.697Z,6.70
2022-11-23T09:47:31.712Z,6.70
2022-11-23T09:50:35.028Z,6.80
2022-11-23T09:53:08.109Z,6.90
2022-11-23T09:55:43.739Z,6.90
2022-11-23T09:58:17.283Z,6.90
2022-11-23T10:00:48.731Z,7.00
2022-11-23T10:03:18.429Z,7.00
2022-11-23T10:05:58.445Z,7.20
2022-11-23T10:08:39.449Z,7.20
2022-11-23T10:11:41.002Z,7.30
2022-11-23T10:20:03.358Z,7.50
2022-11-23T10:22:50.810Z,7.60
2022-11-23T10:25:20.378Z,7.70
2022-11-23T10:27:50.589Z,7.70
2022-11-23T10:30:19.360Z,7.70
2022-11-23T10:33:07.779Z,7.80
2022-11-23T10:35:35.379Z,7.80
2022-11-23T10:38:19.833Z,7.90
2022-11-23T10:41:07.310Z,7.90
2022-11-23T10:43:56.609Z,7.90
2022-11-23T10:46:39.982Z,8.00
2022-11-23T10:49:13.268Z,8.00
2022-11-23T10:51:40.012Z,8.20
2022-11-23T10:54:21.229Z,8.20
2022-11-23T10:56:50.359Z,8.30
2022-11-23T11:00:07.252Z,8.30
2022-11-23T11:02:47.088Z,8.40
2022-11-23T11:06:07.522Z,8.40
2022-11-23T11:08:27.643Z,8.40
2022-11-23T11:11:07.258Z,8.40
2022-11-23T11:13:48.507Z,8.40
2022-11-23T11:16:35.370Z,8.40
2022-11-23T11:19:21.148Z,8.40
2022-11-23T11:21:48.119Z,8.40
2022-11-23T11:24:20.104Z,8.40
2022-11-23T11:27:02.448Z,8.50
2022-11-23T11:29:45.485Z,8.50
2022-11-23T11:32:33.748Z,8.50
2022-11-23T11:35:31.459Z,8.60
2022-11-23T11:38:12.615Z,8.60
2022-11-23T11:40:48.199Z,8.70
2022-11-23T11:43:42.052Z,8.70
2022-11-23T11:46:31.136Z,8.80
2022-11-23T11:51:52.607Z,8.90
2022-11-23T11:54:52.195Z,9.00
2022-11-23T11:57:26.188Z,9.00
2022-11-23T12:00:01.667Z,9.10
2022-11-23T12:02:55.625Z,9.10
2022-11-23T12:05:36.505Z,9.20
2022-11-23T12:08:22.998Z,9.30
2022-11-23T12:11:02.125Z,9.20
2022-11-23T12:13:38.575Z,9.30
2022-11-23T12:17:10.199Z,9.30
2022-11-23T12:19:38.766Z,9.30
2022-11-23T12:22:26.853Z,9.40
2022-11-23T12:25:03.387Z,9.40
2022-11-23T12:27:55.217Z,9.40
2022-11-23T12:30:52.972Z,9.40
2022-11-23T12:33:56.966Z,9.40
2022-11-23T12:36:32.405Z,9.50
2022-11-23T12:39:16.396Z,9.50
2022-11-23T12:41:57.134Z,9.50
2022-11-23T12:45:09.583Z,9.60
2022-11-23T12:47:45.922Z,9.40
2022-11-23T12:50:18.584Z,9.40
2022-11-23T12:53:16.965Z,9.30
2022-11-23T12:55:51.613Z,9.40
2022-11-23T12:58:30.716Z,9.40
2022-11-23T13:01:05.721Z,9.30
2022-11-23T13:03:38.552Z,9.30
2022-11-23T13:06:18.295Z,9.30
2022-11-23T13:09:00.122Z,9.30
2022-11-23T13:11:55.735Z,9.30
2022-11-23T13:14:44.570Z,9.30
2022-11-23T13:17:43.074Z,9.30
2022-11-23T13:20:38.459Z,9.30
2022-11-23T13:23:06.841Z,9.30
2022-11-23T13:25:34.436Z,9.30
2022-11-23T13:33:37.951Z,9.10
2022-11-23T13:36:11.224Z,9.10
2022-11-23T13:38:45.724Z,9.10
2022-11-23T13:41:33.896Z,9.00
2022-11-23T13:44:21.669Z,8.90
2022-11-23T13:47:14.460Z,8.90
2022-11-23T13:50:05.077Z,8.90
2022-11-23T13:52:33.022Z,8.80
2022-11-23T13:55:12.143Z,8.70
2022-11-23T13:57:43.454Z,8.70
2022-11-23T14:00:51.066Z,8.70
2022-11-23T14:03:43.014Z,8.60
2022-11-23T14:06:44.581Z,8.50
2022-11-23T14:09:33.151Z,8.40
2022-11-23T14:12:12.766Z,8.40
2022-11-23T14:15:01.038Z,8.30
2022-11-23T14:17:27.661Z,8.20
2022-11-23T14:20:26.070Z,8.20
2022-11-23T14:23:08.066Z,8.20
2022-11-23T14:25:51.322Z,8.10
2022-11-23T14:28:56.733Z,8.10
2022-11-23T14:31:48.379Z,8.00
2022-11-23T14:34:25.362Z,7.90
2022-11-23T14:37:13.592Z,7.80
2022-11-23T14:39:54.218Z,7.70
2022-11-23T14:42:27.259Z,7.60
2022-11-23T14:44:55.857Z,7.50
2022-11-23T14:47:28.705Z,7.40
2022-11-23T14:49:56.276Z,7.30
2022-11-23T14:52:27.679Z,7.30
2022-11-23T14:54:57.318Z,7.10
2022-11-23T14:57:29.588Z,7.00
2022-11-23T15:00:00.912Z,7.00
2022-11-23T15:02:37.460Z,6.90
2022-11-23T15:05:24.891Z,6.80
2022-11-23T15:08:19.133Z,6.70
2022-11-23T15:11:09.846Z,6.70
2022-11-23T15:14:16.272Z,6.60
2022-11-23T15:16:43.039Z,6.50
2022-11-23T15:19:29.766Z,6.40
2022-11-23T15:21:57.467Z,6.30
2022-11-23T15:24:25.894Z,6.20
2022-11-23T15:26:53.384Z,6.10
2022-11-23T15:29:36.022Z,6.00
2022-11-23T15:32:29.241Z,5.90
2022-11-23T15:34:55.617Z,5.80
2022-11-23T15:37:23.975Z,5.70
2022-11-23T15:39:58.313Z,5.60
2022-11-23T15:42:27.421Z,5.60
2022-11-23T15:44:54.747Z,5.50
2022-11-23T15:47:29.148Z,5.50
2022-11-23T15:50:08.233Z,5.40
2022-11-23T15:52:39.710Z,5.30
2022-11-23T15:55:09.999Z,5.30
2022-11-23T15:57:43.213Z,5.20
2022-11-23T16:00:25.719Z,5.10
2022-11-23T16:03:14.500Z,5.00
2022-11-23T16:05:42.441Z,5.00
2022-11-23T16:08:27.148Z,4.90
2022-11-23T16:10:54.986Z,4.80
2022-11-23T16:13:36.454Z,4.80
2022-11-23T16:16:07.540Z,4.70
2022-11-23T16:18:36.380Z,4.60
2022-11-23T16:21:06.387Z,4.50
2022-11-23T16:23:54.509Z,4.50
2022-11-23T16:26:29.797Z,4.40
2022-11-23T16:28:58.860Z,4.30
2022-11-23T16:31:39.015Z,4.20
2022-11-23T16:34:27.585Z,4.20
2022-11-23T16:36:55.892Z,4.10
2022-11-23T16:39:24.326Z,4.00
2022-11-23T16:41:52.424Z,4.00
2022-11-23T16:44:20.026Z,4.00
2022-11-23T16:46:48.902Z,3.90
2022-11-23T16:49:21.717Z,3.90
2022-11-23T16:51:56.285Z,3.80
2022-11-23T16:54:25.430Z,3.80
2022-11-23T16:56:53.045Z,3.70
2022-11-23T16:59:23.769Z,3.70
2022-11-23T17:01:58.016Z,3.60
2022-11-23T17:04:26.043Z,3.60
2022-11-23T17:06:52.978Z,3.50
2022-11-23T17:09:19.733Z,3.50
2022-11-23T17:11:50.008Z,3.40
2022-11-23T17:14:19.518Z,3.30
2022-11-23T17:16:53.281Z,3.30
2022-11-23T17:19:23.280Z,3.20
2022-11-23T17:21:50.078Z,3.10
2022-11-23T17:24:18.019Z,3.10
2022-11-23T17:26:47.148Z,3.00
2022-11-23T17:29:19.044Z,3.00
2022-11-23T17:31:51.087Z,2.90
2022-11-23T17:34:43.386Z,2.80
2022-11-23T17:37:26.058Z,2.80
2022-11-23T17:39:52.876Z,2.70
2022-11-23T17:42:20.605Z,2.60
2022-11-23T17:44:47.370Z,2.60
2022-11-23T17:47:24.140Z,2.60
2022-11-23T17:49:51.136Z,2.50
2022-11-23T17:52:18.139Z,2.50
2022-11-23T17:54:53.037Z,2.40
2022-11-23T17:57:27.379Z,2.30
2022-11-23T17:59:55.121Z,2.30
2022-11-23T18:02:22.842Z,2.30
2022-11-23T18:04:51.723Z,2.20
2022-11-23T18:07:18.683Z,2.10
2022-11-23T18:09:52.266Z,2.10
2022-11-23T18:12:25.090Z,2.00
2022-11-23T18:14:53.284Z,2.00
2022-11-23T18:17:23.948Z,1.90
2022-11-23T18:19:51.801Z,1.80
2022-11-23T18:22:18.744Z,1.80
2022-11-23T18:24:50.809Z,1.70
2022-11-23T18:27:17.739Z,1.70
2022-11-23T18:29:45.488Z,1.70
2022-11-23T18:32:12.438Z,1.60
2022-11-23T18:34:39.298Z,1.60
2022-11-23T18:37:10.154Z,1.50
2022-11-23T18:39:42.364Z,1.50
2022-11-23T18:42:11.108Z,1.40
2022-11-23T18:44:37.999Z,1.40
2022-11-23T18:47:05.147Z,1.30
2022-11-23T18:49:32.405Z,1.30
2022-11-23T18:52:01.476Z,1.30
2022-11-23T18:54:32.366Z,1.40
2022-11-23T18:57:00.220Z,1.30
2022-11-23T18:59:50.374Z,1.30
2022-11-23T19:02:15.952Z,1.20
2022-11-23T19:04:44.294Z,1.10
2022-11-23T19:07:12.161Z,1.10
2022-11-23T19:09:38.991Z,1.00
2022-11-23T19:12:06.932Z,1.00
2022-11-23T19:14:34.149Z,0.90
2022-11-23T19:17:05.070Z,0.90
2022-11-23T19:19:32.270Z,0.90
2022-11-23T19:21:59.847Z,0.80
2022-11-23T19:24:28.637Z,0.70
2022-11-23T19:26:55.526Z,0.70
2022-11-23T19:29:24.893Z,0.70
2022-11-23T19:31:54.604Z,0.60
2022-11-23T19:34:22.018Z,0.50
2022-11-23T19:36:48.812Z,0.60
2022-11-23T19:39:18.214Z,0.50
2022-11-23T19:41:51.262Z,0.50
2022-11-23T19:44:18.144Z,0.40
2022-11-23T19:46:44.885Z,0.40
2022-11-23T19:49:12.407Z,0.30
2022-11-23T19:51:39.337Z,0.30
2022-11-23T19:54:06.934Z,0.30
2022-11-23T19:56:33.661Z,0.20
2022-11-23T19:59:01.140Z,0.20
2022-11-23T20:01:39.091Z,0.20
2022-11-23T20:04:09.176Z,0.10
2022-11-23T20:06:38.332Z,0.10
2022-11-23T20:09:12.369Z,0.10
2022-11-23T20:11:40.515Z,0.10
2022-11-23T20:14:09.972Z,0.10
2022-11-23T20:16:36.813Z,0.10
2022-11-23T20:19:05.989Z,0.10
2022-11-23T20:21:34.190Z,0.10
2022-11-23T20:24:05.404Z,0.10
2022-11-23T20:26:34.371Z,0.20
2022-11-23T20:29:01.269Z,0.20
2022-11-23T20:31:31.518Z,0.20
2022-11-23T20:33:59.536Z,0.20
2022-11-23T20:36:33.709Z,0.30
2022-11-23T20:39:06.079Z,0.30
2022-11-23T20:41:37.216Z,0.30
2022-11-23T20:44:14.663Z,0.30
2022-11-23T20:49:30.403Z,0.30
2022-11-23T20:52:00.313Z,0.40
2022-11-23T20:54:27.228Z,0.40
2022-11-23T20:57:00.656Z,0.40
2022-11-23T20:59:32.304Z,0.40
2022-11-23T21:02:00.268Z,0.50
2022-11-23T21:04:27.321Z,0.50
2022-11-23T21:06:56.484Z,0.50
2022-11-23T21:09:23.300Z,0.60
2022-11-23T21:12:11.546Z,0.60
2022-11-23T21:14:39.444Z,0.60
2022-11-23T21:17:06.706Z,0.70
2022-11-23T21:19:35.851Z,0.80
2022-11-23T21:22:05.619Z,0.80
2022-11-23T21:24:34.979Z,0.90
2022-11-23T21:27:05.383Z,0.90
2022-11-23T21:29:32.677Z,1.00
2022-11-23T21:32:01.520Z,1.00
2022-11-23T21:34:32.957Z,1.10
2022-11-23T21:37:01.911Z,1.10
2022-11-23T21:39:40.009Z,1.20
2022-11-23T21:42:07.807Z,1.20
2022-11-23T21:44:36.461Z,1.20
2022-11-23T21:47:03.405Z,1.30
2022-11-23T21:49:32.254Z,1.30
2022-11-23T21:51:59.061Z,1.30
2022-11-23T21:54:27.082Z,1.40
2022-11-23T21:56:54.347Z,1.40
2022-11-23T21:59:22.154Z,1.50
2022-11-23T22:01:49.105Z,1.50
2022-11-23T22:04:16.371Z,1.60
2022-11-23T22:06:46.258Z,1.70
2022-11-23T22:09:13.752Z,1.70
2022-11-23T22:11:43.456Z,1.80
2022-11-23T22:14:13.147Z,1.80
2022-11-23T22:16:45.182Z,1.90
2022-11-23T22:19:13.592Z,1.90
2022-11-23T22:21:44.347Z,2.00
2022-11-23T22:24:17.327Z,2.10
2022-11-23T22:26:50.026Z,2.10
2022-11-23T22:29:18.045Z,2.20
2022-11-23T22:31:45.294Z,2.20
2022-11-23T22:34:13.582Z,2.30
2022-11-23T22:36:40.744Z,2.30
2022-11-23T22:39:10.089Z,2.40
2022-11-23T22:41:38.955Z,2.40
2022-11-23T22:44:09.909Z,2.40
2022-11-23T22:46:38.387Z,2.50
2022-11-23T22:49:06.511Z,2.60
2022-11-23T22:51:33.575Z,2.60
2022-11-23T22:54:01.609Z,2.60
2022-11-23T22:56:29.595Z,2.60
2022-11-23T22:58:59.861Z,2.70
2022-11-23T23:01:29.399Z,2.80
2022-11-23T23:03:58.317Z,2.80
2022-11-23T23:06:28.478Z,2.80
2022-11-23T23:08:59.237Z,2.80
2022-11-23T23:11:30.600Z,2.80
2022-11-23T23:13:57.767Z,2.90
2022-11-23T23:16:25.862Z,2.90
2022-11-23T23:18:55.617Z,2.90
2022-11-23T23:21:22.775Z,2.90
2022-11-23T23:23:52.161Z,2.90
2022-11-23T23:26:22.305Z,3.00
2022-11-23T23:29:01.418Z,3.00
2022-11-23T23:31:30.213Z,3.00
2022-11-23T23:33:59.193Z,3.00
2022-11-23T23:36:27.113Z,3.10
2022-11-23T23:38:55.021Z,3.10
2022-11-23T23:41:23.927Z,3.10
2022-11-23T23:43:50.744Z,3.10
2022-11-23T23:46:18.057Z,3.10
2022-11-23T23:48:45.471Z,3.20
2022-11-23T23:51:16.895Z,3.20
2022-11-23T23:53:45.131Z,3.20
2022-11-23T23:56:19.670Z,3.20
2022-11-23T23:58:48.544Z,3.20
